createdAt,value
2022-09-22T00:00:59.691Z,7.25
2022-09-22T00:03:29.420Z,7.21
2022-09-22T00:06:00.757Z,7.22
2022-09-22T00:08:28.675Z,7.23
2022-09-22T00:11:16.943Z,7.02
2022-09-22T00:13:45.778Z,7.12
2022-09-22T00:16:13.927Z,7.05
2022-09-22T00:18:40.361Z,7.05
2022-09-22T00:21:12.968Z,7.03
2022-09-22T00:23:41.175Z,6.96
2022-09-22T00:26:10.378Z,6.99
2022-09-22T00:28:41.623Z,7.00
2022-09-22T00:31:17.560Z,7.09
2022-09-22T00:33:46.204Z,6.95
2022-09-22T00:36:13.774Z,6.80
2022-09-22T00:38:41.073Z,6.82
2022-09-22T00:41:10.360Z,6.93
2022-09-22T00:43:38.646Z,6.78
2022-09-22T00:46:38.589Z,6.84
2022-09-22T00:49:08.417Z,6.80
2022-09-22T00:51:37.969Z,6.70
2022-09-22T00:54:08.675Z,6.73
2022-09-22T00:56:41.919Z,6.84
2022-09-22T00:59:14.291Z,6.71
2022-09-22T01:01:40.983Z,6.54
2022-09-22T01:04:07.680Z,6.57
2022-09-22T01:06:35.974Z,6.61
2022-09-22T01:09:02.966Z,6.51
2022-09-22T01:11:29.761Z,6.65
2022-09-22T01:14:37.847Z,6.52
2022-09-22T01:17:28.130Z,6.46
2022-09-22T01:20:06.934Z,6.37
2022-09-22T01:22:49.401Z,6.49
2022-09-22T01:25:34.293Z,6.54
2022-09-22T01:28:23.724Z,6.57
2022-09-22T01:31:12.671Z,6.33
2022-09-22T01:33:49.404Z,6.37
2022-09-22T01:36:25.046Z,6.38
2022-09-22T01:38:59.851Z,6.36
2022-09-22T01:41:42.495Z,6.26
2022-09-22T01:44:21.565Z,6.36
2022-09-22T01:46:55.826Z,6.28
2022-09-22T01:49:24.705Z,6.29
2022-09-22T01:51:57.907Z,6.40
2022-09-22T01:54:32.995Z,6.41
2022-09-22T01:57:20.263Z,6.32
2022-09-22T01:59:54.107Z,6.35
2022-09-22T02:02:30.077Z,6.39
2022-09-22T02:05:02.566Z,6.42
2022-09-22T02:07:33.928Z,6.38
2022-09-22T02:10:05.708Z,6.34
2022-09-22T02:12:32.183Z,6.23
2022-09-22T02:14:58.601Z,6.22
2022-09-22T02:17:25.004Z,6.22
2022-09-22T02:19:52.190Z,6.22
2022-09-22T02:22:18.714Z,6.09
2022-09-22T02:24:46.746Z,6.09
2022-09-22T02:27:26.243Z,6.14
2022-09-22T02:30:10.783Z,6.13
2022-09-22T02:32:41.203Z,6.08
2022-09-22T02:35:08.898Z,6.05
2022-09-22T02:37:50.733Z,6.03
2022-09-22T02:40:22.596Z,6.01
2022-09-22T02:43:19.991Z,5.89
2022-09-22T02:45:55.491Z,5.86
2022-09-22T02:48:26.221Z,5.90
2022-09-22T02:50:54.458Z,5.91
2022-09-22T02:53:21.018Z,5.97
2022-09-22T02:55:48.424Z,5.85
2022-09-22T02:58:16.212Z,5.79
2022-09-22T03:00:44.022Z,5.68
2022-09-22T03:03:13.031Z,5.71
2022-09-22T03:05:39.866Z,5.81
2022-09-22T03:08:06.574Z,5.68
2022-09-22T03:10:33.574Z,5.67
2022-09-22T03:13:16.025Z,5.57
2022-09-22T03:15:44.138Z,5.51
2022-09-22T03:18:10.525Z,5.49
2022-09-22T03:20:36.878Z,5.49
2022-09-22T03:23:03.272Z,5.51
2022-09-22T03:25:29.619Z,5.51
2022-09-22T03:27:55.947Z,5.52
2022-09-22T03:30:22.360Z,5.50
2022-09-22T03:32:48.705Z,5.56
2022-09-22T03:35:15.128Z,5.50
2022-09-22T03:37:41.458Z,5.53
2022-09-22T03:40:08.104Z,5.57
2022-09-22T03:42:35.246Z,5.52
2022-09-22T03:45:03.109Z,5.48
2022-09-22T03:47:29.876Z,5.46
2022-09-22T03:49:56.223Z,5.49
2022-09-22T03:52:22.986Z,5.42
2022-09-22T03:54:49.890Z,5.33
2022-09-22T03:57:16.230Z,5.44
2022-09-22T03:59:42.614Z,5.41
2022-09-22T04:02:09.105Z,5.36
2022-09-22T04:04:35.491Z,5.26
2022-09-22T04:07:07.133Z,5.30
2022-09-22T04:09:34.060Z,5.29
2022-09-22T04:12:00.878Z,5.32
2022-09-22T04:14:27.620Z,5.31
2022-09-22T04:16:54.287Z,5.26
2022-09-22T04:19:21.148Z,5.30
2022-09-22T04:21:47.541Z,5.32
2022-09-22T04:24:13.877Z,5.37
2022-09-22T04:26:51.586Z,5.36
2022-09-22T04:29:26.622Z,6.57
2022-09-22T04:31:52.990Z,5.86
2022-09-22T04:34:19.456Z,5.70
2022-09-22T04:36:45.845Z,5.73
2022-09-22T04:39:12.280Z,5.63
2022-09-22T04:41:38.852Z,5.48
2022-09-22T04:44:05.222Z,5.46
2022-09-22T04:46:31.640Z,5.34
2022-09-22T04:48:58.114Z,5.29
2022-09-22T04:51:24.461Z,5.30
2022-09-22T04:53:50.792Z,5.29
2022-09-22T04:56:17.492Z,5.26
2022-09-22T04:58:43.980Z,5.13
2022-09-22T05:01:10.472Z,5.21
2022-09-22T05:03:38.878Z,5.24
2022-09-22T05:06:06.490Z,5.33
2022-09-22T05:08:32.881Z,5.27
2022-09-22T05:10:59.721Z,5.28
2022-09-22T05:13:26.071Z,5.42
2022-09-22T05:15:52.741Z,5.23
2022-09-22T05:18:19.127Z,5.18
2022-09-22T05:20:45.786Z,5.15
2022-09-22T05:23:12.117Z,5.15
2022-09-22T05:25:39.085Z,5.13
2022-09-22T05:28:05.480Z,5.29
2022-09-22T05:30:31.949Z,5.13
2022-09-22T05:32:58.320Z,5.21
2022-09-22T05:35:25.663Z,5.31
2022-09-22T05:37:53.142Z,5.32
2022-09-22T05:40:20.467Z,5.23
2022-09-22T05:42:49.506Z,5.34
2022-09-22T05:45:16.907Z,5.43
2022-09-22T05:47:44.005Z,5.42
2022-09-22T05:50:12.132Z,5.54
2022-09-22T05:52:38.818Z,5.54
2022-09-22T05:55:05.931Z,5.51
2022-09-22T05:57:32.723Z,5.67
2022-09-22T05:59:59.526Z,5.87
2022-09-22T06:02:26.836Z,5.79
2022-09-22T06:04:54.001Z,5.94
2022-09-22T06:07:21.417Z,5.98
2022-09-22T06:09:48.893Z,6.03
2022-09-22T06:12:15.898Z,6.08
2022-09-22T06:14:42.683Z,6.24
2022-09-22T06:17:11.657Z,6.33
2022-09-22T06:19:39.020Z,6.49
2022-09-22T06:22:05.720Z,6.67
2022-09-22T06:24:32.083Z,6.64
2022-09-22T06:26:58.715Z,6.57
2022-09-22T06:29:25.951Z,6.68
2022-09-22T06:31:52.437Z,6.76
2022-09-22T06:34:18.950Z,6.79
2022-09-22T06:36:45.350Z,6.83
2022-09-22T06:39:13.034Z,6.93
2022-09-22T06:41:39.422Z,7.08
2022-09-22T06:44:06.706Z,7.14
2022-09-22T06:46:34.087Z,7.20
2022-09-22T06:49:00.891Z,7.27
2022-09-22T06:51:30.436Z,7.52
2022-09-22T06:53:56.841Z,7.48
2022-09-22T06:56:25.404Z,7.70
2022-09-22T06:59:09.533Z,7.89
2022-09-22T07:01:37.434Z,7.89
2022-09-22T07:04:04.662Z,8.13
2022-09-22T07:06:31.335Z,8.09
2022-09-22T07:08:57.761Z,8.09
2022-09-22T07:11:24.365Z,8.16
2022-09-22T07:13:53.441Z,8.40
2022-09-22T07:16:22.135Z,8.28
2022-09-22T07:18:54.343Z,8.49
2022-09-22T07:21:24.611Z,8.50
2022-09-22T07:23:53.715Z,8.52
2022-09-22T07:26:26.443Z,8.65
2022-09-22T07:28:56.139Z,8.86
2022-09-22T07:31:28.414Z,9.22
2022-09-22T07:33:55.493Z,9.33
2022-09-22T07:36:24.018Z,9.33
2022-09-22T07:38:52.232Z,9.57
2022-09-22T07:41:29.634Z,9.52
2022-09-22T07:44:18.164Z,9.73
2022-09-22T07:46:45.436Z,9.91
2022-09-22T07:49:11.859Z,9.91
2022-09-22T07:51:38.726Z,10.03
2022-09-22T07:54:07.636Z,10.01
2022-09-22T07:56:35.951Z,10.16
2022-09-22T07:59:05.201Z,10.04
2022-09-22T08:01:34.673Z,10.38
2022-09-22T08:04:01.647Z,10.53
2022-09-22T08:06:28.750Z,10.32
2022-09-22T08:08:56.645Z,10.74
2022-09-22T08:11:26.287Z,11.08
2022-09-22T08:13:57.086Z,10.94
2022-09-22T08:16:28.085Z,11.21
2022-09-22T08:18:56.644Z,11.12
2022-09-22T08:21:27.738Z,11.38
2022-09-22T08:23:54.325Z,11.43
2022-09-22T08:26:21.351Z,11.28
2022-09-22T08:28:52.476Z,11.69
2022-09-22T08:31:22.725Z,11.77
2022-09-22T08:33:50.189Z,11.62
2022-09-22T08:36:16.722Z,11.85
2022-09-22T08:38:43.729Z,11.90
2022-09-22T08:41:15.394Z,12.12
2022-09-22T08:43:55.295Z,12.16
2022-09-22T08:46:29.601Z,12.35
2022-09-22T08:49:22.104Z,12.62
2022-09-22T08:51:54.900Z,12.75
2022-09-22T08:54:31.441Z,12.74
2022-09-22T08:57:21.400Z,12.88
2022-09-22T09:00:11.560Z,13.36
2022-09-22T09:03:17.803Z,13.28
2022-09-22T09:06:04.125Z,13.53
2022-09-22T09:08:42.130Z,13.59
2022-09-22T09:11:30.052Z,13.94
2022-09-22T09:14:12.123Z,13.93
2022-09-22T09:16:48.096Z,13.98
2022-09-22T09:19:23.496Z,14.42
2022-09-22T09:21:52.932Z,14.56
2022-09-22T09:27:21.639Z,14.65
2022-09-22T09:30:18.466Z,14.75
2022-09-22T09:32:52.685Z,14.81
2022-09-22T09:35:26.994Z,14.99
2022-09-22T09:37:59.422Z,15.05
2022-09-22T09:40:25.945Z,14.98
2022-09-22T09:43:03.600Z,15.19
2022-09-22T09:45:54.907Z,15.35
2022-09-22T09:48:46.643Z,15.14
2022-09-22T09:51:14.179Z,15.47
2022-09-22T09:53:45.775Z,15.87
2022-09-22T09:56:33.272Z,16.00
2022-09-22T09:59:23.031Z,15.93
2022-09-22T10:01:51.754Z,16.18
2022-09-22T10:04:28.685Z,16.13
2022-09-22T10:07:16.652Z,15.84
2022-09-22T10:09:44.604Z,16.32
2022-09-22T10:12:32.780Z,16.40
2022-09-22T10:15:01.267Z,16.30
2022-09-22T10:17:30.762Z,16.19
2022-09-22T10:20:17.373Z,16.48
2022-09-22T10:22:44.242Z,16.51
2022-09-22T10:25:24.238Z,16.35
2022-09-22T10:28:05.484Z,16.43
2022-09-22T10:30:33.146Z,16.33
2022-09-22T10:33:04.981Z,16.39
2022-09-22T10:35:33.631Z,16.83
2022-09-22T10:38:09.802Z,16.89
2022-09-22T10:40:39.171Z,16.69
2022-09-22T10:43:14.204Z,16.94
2022-09-22T10:45:47.542Z,16.97
2022-09-22T10:48:38.537Z,17.25
2022-09-22T10:51:15.816Z,17.69
2022-09-22T10:54:07.811Z,17.36
2022-09-22T10:56:39.487Z,17.45
2022-09-22T10:59:08.852Z,17.27
2022-09-22T11:02:12.902Z,17.64
2022-09-22T11:05:10.284Z,17.82
2022-09-22T11:08:23.520Z,17.50
2022-09-22T11:11:16.492Z,17.53
2022-09-22T11:14:09.968Z,17.71
2022-09-22T11:16:59.428Z,17.98
2022-09-22T11:19:33.875Z,17.99
2022-09-22T11:22:26.651Z,17.99
2022-09-22T11:25:14.534Z,17.66
2022-09-22T11:27:56.043Z,17.75
2022-09-22T11:30:23.191Z,17.71
2022-09-22T11:33:03.057Z,17.61
2022-09-22T11:35:49.782Z,17.26
2022-09-22T11:38:54.295Z,17.60
2022-09-22T11:41:40.622Z,17.95
2022-09-22T11:44:29.158Z,18.11
2022-09-22T11:47:13.269Z,18.01
2022-09-22T11:49:54.820Z,18.41
2022-09-22T11:52:21.130Z,18.32
2022-09-22T11:55:23.416Z,18.07
2022-09-22T11:57:55.609Z,17.97
2022-09-22T12:00:22.068Z,17.85
2022-09-22T12:03:06.436Z,18.25
2022-09-22T12:05:43.579Z,18.45
2022-09-22T12:08:16.113Z,18.32
2022-09-22T12:10:47.039Z,18.62
2022-09-22T12:13:17.586Z,18.70
2022-09-22T12:16:08.699Z,18.55
2022-09-22T12:18:44.810Z,18.33
2022-09-22T12:21:39.634Z,18.38
2022-09-22T12:24:11.212Z,18.26
2022-09-22T12:26:44.552Z,18.33
2022-09-22T12:29:10.854Z,18.63
2022-09-22T12:31:42.455Z,18.62
2022-09-22T12:34:24.522Z,18.75
2022-09-22T12:36:59.294Z,18.27
2022-09-22T12:39:28.918Z,18.44
2022-09-22T12:42:07.398Z,18.44
2022-09-22T12:45:15.526Z,18.40
2022-09-22T12:47:47.947Z,17.79
2022-09-22T12:50:23.452Z,18.28
2022-09-22T12:52:52.383Z,18.60
2022-09-22T12:55:21.867Z,18.73
2022-09-22T12:57:50.694Z,18.30
2022-09-22T13:00:20.619Z,18.11
2022-09-22T13:02:49.676Z,18.31
2022-09-22T13:05:24.872Z,18.03
2022-09-22T13:07:55.727Z,18.16
2022-09-22T13:10:25.019Z,18.34
2022-09-22T13:13:06.630Z,18.57
2022-09-22T13:15:45.695Z,18.59
2022-09-22T13:18:41.753Z,18.68
2022-09-22T13:21:13.830Z,18.81
2022-09-22T13:23:49.274Z,18.64
2022-09-22T13:26:16.530Z,18.56
2022-09-22T13:28:43.150Z,18.70
2022-09-22T13:31:17.965Z,18.83
2022-09-22T13:33:44.398Z,18.84
2022-09-22T13:36:17.335Z,18.93
2022-09-22T13:38:50.799Z,18.94
2022-09-22T13:41:23.944Z,18.89
2022-09-22T13:43:55.949Z,18.93
2022-09-22T13:46:26.196Z,18.76
2022-09-22T13:48:56.446Z,18.70
2022-09-22T13:51:24.851Z,18.39
2022-09-22T13:53:57.743Z,18.60
2022-09-22T13:56:25.749Z,18.47
2022-09-22T13:58:57.006Z,18.50
2022-09-22T14:01:25.650Z,18.41
2022-09-22T14:03:53.306Z,18.75
2022-09-22T14:06:47.253Z,18.55
2022-09-22T14:09:13.623Z,18.55
2022-09-22T14:11:40.074Z,18.54
2022-09-22T14:14:07.848Z,18.31
2022-09-22T14:16:51.556Z,18.31
2022-09-22T14:19:22.269Z,18.31
2022-09-22T14:22:00.769Z,18.42
2022-09-22T14:24:28.211Z,18.72
2022-09-22T14:27:04.611Z,18.49
2022-09-22T14:29:37.319Z,18.81
2022-09-22T14:32:14.763Z,18.92
2022-09-22T14:34:47.164Z,18.79
2022-09-22T14:37:28.076Z,18.76
2022-09-22T14:39:57.036Z,18.72
2022-09-22T14:42:28.970Z,18.91
2022-09-22T14:45:10.455Z,19.08
2022-09-22T14:47:41.168Z,19.21
2022-09-22T14:50:37.557Z,18.89
2022-09-22T14:53:18.977Z,18.86
2022-09-22T14:55:49.201Z,18.55
2022-09-22T14:58:24.415Z,18.76
2022-09-22T15:01:14.701Z,18.50
2022-09-22T15:03:44.672Z,18.40
2022-09-22T15:06:14.048Z,18.59
2022-09-22T15:08:44.434Z,18.45
2022-09-22T15:11:11.452Z,18.41
2022-09-22T15:13:45.565Z,18.64
2022-09-22T15:16:33.674Z,18.74
2022-09-22T15:19:00.452Z,18.49
2022-09-22T15:21:29.169Z,18.64
2022-09-22T15:23:57.860Z,18.47
2022-09-22T15:26:26.447Z,18.67
2022-09-22T15:28:55.205Z,18.41
2022-09-22T15:31:26.780Z,18.52
2022-09-22T15:33:59.964Z,18.54
2022-09-22T15:36:27.995Z,18.49
2022-09-22T15:39:01.018Z,18.70
2022-09-22T15:41:27.927Z,18.70
2022-09-22T15:43:54.604Z,18.77
2022-09-22T15:46:26.498Z,18.58
2022-09-22T15:48:53.207Z,18.43
2022-09-22T15:51:19.568Z,18.32
2022-09-22T15:53:46.026Z,18.30
2022-09-22T15:56:18.973Z,18.33
2022-09-22T15:58:45.755Z,18.41
2022-09-22T16:01:12.133Z,18.48
2022-09-22T16:03:41.307Z,18.51
2022-09-22T16:06:15.594Z,18.59
2022-09-22T16:08:48.035Z,18.63
2022-09-22T16:11:24.212Z,18.57
2022-09-22T16:13:50.550Z,18.60
2022-09-22T16:16:19.246Z,18.55
2022-09-22T16:18:45.877Z,18.49
2022-09-22T16:21:29.291Z,18.75
2022-09-22T16:23:59.500Z,18.25
2022-09-22T16:26:31.330Z,18.12
2022-09-22T16:28:58.608Z,18.21
2022-09-22T16:31:25.760Z,18.20
2022-09-22T16:33:54.748Z,18.22
2022-09-22T16:36:21.986Z,18.10
2022-09-22T16:38:48.725Z,18.09
2022-09-22T16:41:22.567Z,17.97
2022-09-22T16:43:49.331Z,17.95
2022-09-22T16:46:33.652Z,17.98
2022-09-22T16:49:08.129Z,18.01
2022-09-22T16:51:37.102Z,17.91
2022-09-22T16:54:08.352Z,17.86
2022-09-22T16:56:37.669Z,17.80
2022-09-22T16:59:04.883Z,17.77
2022-09-22T17:01:36.219Z,17.64
2022-09-22T17:04:06.980Z,17.48
2022-09-22T17:06:35.956Z,17.45
2022-09-22T17:09:02.353Z,17.25
2022-09-22T17:11:34.303Z,17.06
2022-09-22T17:14:05.042Z,16.82
2022-09-22T17:16:36.708Z,16.69
2022-09-22T17:19:04.848Z,16.48
2022-09-22T17:21:34.447Z,16.40
2022-09-22T17:24:01.983Z,15.88
2022-09-22T17:26:31.134Z,15.65
2022-09-22T17:28:59.623Z,15.50
2022-09-22T17:31:27.655Z,15.24
2022-09-22T17:33:54.988Z,15.24
2022-09-22T17:36:23.815Z,14.96
2022-09-22T17:38:52.957Z,14.78
2022-09-22T17:41:21.761Z,14.73
2022-09-22T17:43:55.689Z,14.76
2022-09-22T17:46:23.468Z,14.76
2022-09-22T17:49:08.763Z,14.46
2022-09-22T17:51:57.933Z,14.14
2022-09-22T17:54:59.653Z,14.19
2022-09-22T17:57:30.800Z,14.13
2022-09-22T17:59:58.149Z,13.94
2022-09-22T18:02:29.942Z,13.91
2022-09-22T18:04:56.370Z,13.87
2022-09-22T18:07:25.405Z,13.78
2022-09-22T18:09:52.313Z,13.82
2022-09-22T18:12:21.692Z,13.61
2022-09-22T18:14:50.048Z,13.38
2022-09-22T18:17:19.708Z,13.26
2022-09-22T18:19:46.556Z,13.20
2022-09-22T18:22:16.801Z,13.08
2022-09-22T18:24:43.980Z,13.05
2022-09-22T18:27:13.108Z,13.03
2022-09-22T18:29:39.473Z,12.86
2022-09-22T18:32:06.081Z,12.92
2022-09-22T18:34:32.430Z,12.98
2022-09-22T18:37:00.744Z,12.91
2022-09-22T18:39:28.471Z,12.96
2022-09-22T18:41:55.300Z,12.89
2022-09-22T18:44:22.553Z,12.70
2022-09-22T18:46:49.161Z,12.69
2022-09-22T18:49:16.653Z,12.66
2022-09-22T18:51:49.085Z,12.62
2022-09-22T18:54:16.910Z,12.74
2022-09-22T18:56:47.984Z,12.72
2022-09-22T18:59:19.944Z,12.72
2022-09-22T19:01:47.489Z,12.77
2022-09-22T19:04:17.094Z,12.59
2022-09-22T19:07:03.566Z,12.63
2022-09-22T19:09:30.135Z,12.50
2022-09-22T19:11:56.737Z,12.39
2022-09-22T19:14:23.199Z,12.29
2022-09-22T19:16:49.824Z,12.10
2022-09-22T19:19:17.103Z,12.02
2022-09-22T19:21:43.602Z,11.97
2022-09-22T19:24:10.480Z,11.82
2022-09-22T19:26:43.930Z,11.80
2022-09-22T19:29:12.070Z,11.57
2022-09-22T19:31:41.195Z,11.58
2022-09-22T19:34:09.194Z,11.70
2022-09-22T19:36:36.002Z,11.51
2022-09-22T19:39:02.437Z,11.57
2022-09-22T19:41:28.810Z,11.36
2022-09-22T19:43:56.566Z,11.46
2022-09-22T19:46:24.366Z,11.37
2022-09-22T19:48:51.208Z,11.29
2022-09-22T19:51:17.741Z,11.23
2022-09-22T19:53:44.175Z,11.12
2022-09-22T19:56:14.980Z,11.15
2022-09-22T19:58:41.529Z,11.11
2022-09-22T20:01:08.393Z,10.94
2022-09-22T20:03:34.773Z,11.08
2022-09-22T20:06:01.108Z,10.80
2022-09-22T20:08:27.535Z,10.80
2022-09-22T20:11:16.319Z,10.76
2022-09-22T20:14:00.781Z,10.63
2022-09-22T20:16:28.086Z,10.57
2022-09-22T20:18:54.991Z,10.50
2022-09-22T20:21:21.569Z,10.45
2022-09-22T20:23:47.922Z,10.30
2022-09-22T20:26:14.305Z,10.37
2022-09-22T20:28:41.412Z,10.17
2022-09-22T20:31:12.052Z,10.24
2022-09-22T20:33:38.825Z,10.29
2022-09-22T20:36:05.994Z,10.17
2022-09-22T20:38:33.709Z,10.30
2022-09-22T20:41:01.848Z,10.28
2022-09-22T20:43:28.837Z,10.17
2022-09-22T20:46:03.561Z,10.16
2022-09-22T20:48:30.225Z,10.30
2022-09-22T20:51:02.798Z,10.24
2022-09-22T20:53:33.227Z,10.12
2022-09-22T20:56:04.525Z,10.07
2022-09-22T20:58:32.636Z,10.11
2022-09-22T21:01:00.649Z,9.94
2022-09-22T21:03:27.030Z,9.88
2022-09-22T21:05:58.660Z,9.88
2022-09-22T21:08:44.193Z,9.80
2022-09-22T21:11:19.063Z,9.74
2022-09-22T21:13:45.893Z,9.76
2022-09-22T21:16:15.693Z,9.72
2022-09-22T21:18:42.080Z,9.70
2022-09-22T21:21:08.459Z,9.59
2022-09-22T21:23:35.233Z,9.70
2022-09-22T21:26:04.589Z,9.67
2022-09-22T21:28:31.309Z,9.48
2022-09-22T21:30:59.513Z,9.49
2022-09-22T21:33:27.602Z,9.45
2022-09-22T21:36:09.953Z,9.43
2022-09-22T21:38:37.017Z,9.43
2022-09-22T21:41:05.853Z,9.30
2022-09-22T21:43:32.949Z,9.42
2022-09-22T21:46:05.202Z,9.32
2022-09-22T21:48:36.264Z,9.27
2022-09-22T21:51:08.562Z,9.20
2022-09-22T21:53:36.361Z,9.24
2022-09-22T21:56:11.168Z,9.11
2022-09-22T21:58:40.579Z,9.05
2022-09-22T22:01:09.214Z,9.11
2022-09-22T22:03:41.932Z,8.93
2022-09-22T22:06:28.792Z,8.86
2022-09-22T22:09:06.643Z,9.01
2022-09-22T22:11:39.693Z,8.88
2022-09-22T22:14:08.853Z,8.88
2022-09-22T22:16:44.168Z,8.88
2022-09-22T22:19:13.595Z,8.83
2022-09-22T22:21:41.515Z,8.75
2022-09-22T22:24:28.401Z,8.68
2022-09-22T22:27:01.283Z,8.65
2022-09-22T22:29:31.550Z,8.51
2022-09-22T22:31:58.555Z,8.46
2022-09-22T22:34:28.133Z,8.56
2022-09-22T22:36:55.811Z,8.48
2022-09-22T22:39:22.221Z,8.32
2022-09-22T22:41:54.411Z,8.44
2022-09-22T22:44:21.080Z,8.34
2022-09-22T22:46:47.592Z,8.30
2022-09-22T22:49:13.983Z,8.32
2022-09-22T22:51:45.222Z,8.28
2022-09-22T22:54:12.561Z,8.33
2022-09-22T22:56:42.063Z,8.21
2022-09-22T22:59:10.374Z,8.21
2022-09-22T23:01:37.337Z,8.07
2022-09-22T23:04:06.787Z,8.07
2022-09-22T23:06:39.608Z,8.10
2022-09-22T23:09:08.339Z,8.09
2022-09-22T23:11:37.387Z,8.06
2022-09-22T23:14:06.605Z,7.94
2022-09-22T23:16:36.638Z,8.11
2022-09-22T23:19:06.737Z,8.00
2022-09-22T23:21:33.659Z,7.94
2022-09-22T23:24:03.697Z,7.83
2022-09-22T23:26:30.174Z,7.80
2022-09-22T23:28:58.467Z,7.77
2022-09-22T23:31:25.609Z,7.88
2022-09-22T23:33:52.813Z,7.81
2022-09-22T23:36:24.617Z,7.76
2022-09-22T23:38:55.229Z,7.79
2022-09-22T23:41:22.119Z,7.75
2022-09-22T23:43:48.474Z,7.92
2022-09-22T23:46:15.046Z,7.89
2022-09-22T23:48:41.520Z,7.88
2022-09-22T23:51:07.923Z,7.67
2022-09-22T23:53:36.625Z,7.60
2022-09-22T23:56:05.535Z,7.52
2022-09-22T23:58:32.956Z,7.52
